Time;durP1;ratioP1;P1;durP2;ratioP2;P2;SDS_P1;SDS_P2;PMS_P1;PMS_P2;Temp;Humidity;BMP_temperature;BMP_pressure;BME280_temperature;BME280_humidity;BME280_pressure;Samples;Min_cycle;Max_cycle;Signal;HPM_P1;HPM_P2
2021/10/27 00:11:11;;;;;;;3.28;0.75;;;;;;;;;;4417911;32;20145;-69
2021/10/27 00:13:37;;;;;;;5.15;1.00;;;;;;;21.82;48.13;100404.31;4419029;32;20038;-69
2021/10/27 00:16:04;;;;;;;4.60;0.62;;;;;;;22.36;47.20;100410.41;4416846;32;20088;-69
2021/10/27 00:18:29;;;;;;;2.95;0.50;;;;;;;22.52;46.86;100390.25;4416623;32;20118;-69
2021/10/27 00:20:55;;;;;;;1.85;0.52;;;;;;;22.41;46.99;100398.09;4414324;32;20409;-70
2021/10/27 00:23:21;;;;;;;6.15;1.00;;;;;;;22.69;46.44;100413.09;4422123;32;20050;-70
2021/10/27 00:25:46;;;;;;;2.83;0.65;;;;;;;22.63;46.60;100418.09;4420288;32;20057;-70
2021/10/27 00:28:12;;;;;;;7.80;1.33;;;;;;;22.64;46.66;100405.31;4416500;32;20370;-70
2021/10/27 00:30:38;;;;;;;6.87;0.82;;;;;;;22.46;47.06;100414.50;4417174;32;20406;-70
2021/10/27 00:33:04;;;;;;;4.35;1.05;;;;;;;22.71;46.51;100413.37;4415515;32;20807;-70
2021/10/27 00:35:29;;;;;;;2.97;0.40;;;;;;;22.54;46.98;100419.19;4419032;32;20043;-70
2021/10/27 00:37:56;;;;;;;4.28;0.82;;;;;;;22.47;47.25;100410.31;4418427;32;20041;-69
2021/10/27 00:40:22;;;;;;;4.00;0.65;;;;;;;22.44;47.71;100411.38;4420757;32;20194;-70
2021/10/27 00:42:48;;;;;;;4.03;0.57;;;;;;;22.54;47.34;100409.78;4404374;32;20500;-70
2021/10/27 00:45:14;;;;;;;3.60;0.93;;;;;;;22.52;47.43;100416.06;4416847;32;20446;-70
2021/10/27 00:47:40;;;;;;;3.15;0.40;;;;;;;22.49;47.67;100419.19;4418950;32;20096;-70
2021/10/27 00:50:06;;;;;;;3.42;0.80;;;;;;;22.47;47.85;100413.19;4416560;32;20090;-70
2021/10/27 00:52:32;;;;;;;6.50;0.70;;;;;;;22.77;47.10;100406.25;4415850;32;20464;-70
2021/10/27 00:54:58;;;;;;;3.30;0.73;;;;;;;22.67;47.23;100418.59;4417996;32;20057;-70
2021/10/27 00:57:24;;;;;;;2.47;0.60;;;;;;;22.91;46.98;100412.97;4417992;32;20073;-69
2021/10/27 00:59:51;;;;;;;2.03;0.47;;;;;;;22.67;47.74;100402.16;4416171;32;20328;-69
2021/10/27 01:02:19;;;;;;;4.47;0.60;;;;;;;22.66;47.74;100414.16;4416409;32;20348;-69
2021/10/27 01:04:46;;;;;;;2.87;0.73;;;;;;;22.80;47.65;100407.31;4420809;32;20061;-69
2021/10/27 01:07:13;;;;;;;3.53;0.75;;;;;;;22.66;47.80;100414.16;4420839;32;20081;-69
2021/10/27 01:09:39;;;;;;;4.65;0.77;;;;;;;22.78;47.72;100418.53;4416704;32;20077;-70
2021/10/27 01:12:06;;;;;;;3.40;0.40;;;;;;;22.64;47.77;100408.19;4416634;32;20081;-70
2021/10/27 01:17:13;;;;;;;2.95;0.60;;;;;;;23.26;46.89;100404.41;3981966;32;15022288;-70
2021/10/27 01:19:52;;;;;;;1.48;0.45;;;;;;;23.26;46.89;100404.41;4435449;32;20643;-70
2021/10/27 01:22:21;;;;;;;2.25;0.57;;;;;;;23.00;47.01;100407.69;4436234;32;20396;-69
2021/10/27 01:24:47;;;;;;;2.08;0.43;;;;;;;22.73;47.46;100407.88;4429742;32;20025;-70
2021/10/27 01:27:13;;;;;;;2.55;0.50;;;;;;;22.84;47.09;100417.19;4433297;32;20050;-69
2021/10/27 01:29:39;;;;;;;3.37;0.60;;;;;;;22.40;48.04;100413.75;4435147;32;20069;-70
2021/10/27 01:32:06;;;;;;;1.58;0.37;;;;;;;22.78;47.19;100395.56;4434625;32;20082;-70
2021/10/27 01:34:33;;;;;;;0.98;0.40;;;;;;;22.57;47.78;100392.31;4433529;32;20025;-70
2021/10/27 01:36:58;;;;;;;3.65;0.30;;;;;;;23.11;46.59;100390.38;4434050;32;20446;-70
2021/10/27 01:39:25;;;;;;;1.05;0.37;;;;;;;22.63;47.42;100392.28;4434821;32;20068;-69
2021/10/27 01:41:50;;;;;;;2.17;0.50;;;;;;;22.83;46.86;100394.78;4434066;32;20060;-69
2021/10/27 01:44:16;;;;;;;5.07;0.43;;;;;;;22.40;47.69;100419.50;4431576;32;20089;-69
2021/10/27 01:46:42;;;;;;;2.55;0.50;;;;;;;22.46;47.51;100389.47;4434960;32;20030;-70
2021/10/27 01:49:09;;;;;;;5.25;0.60;;;;;;;22.55;47.23;100379.81;4430691;32;20419;-70
2021/10/27 01:51:36;;;;;;;1.83;0.40;;;;;;;22.63;47.19;100392.28;4433790;32;20126;-69
2021/10/27 01:54:03;;;;;;;1.55;0.50;;;;;;;22.94;46.48;100395.47;4430505;32;20037;-70
2021/10/27 01:56:29;;;;;;;4.18;0.65;;;;;;;22.65;47.04;100383.94;4437457;32;20162;-69
2021/10/27 01:58:55;;;;;;;4.65;0.60;;;;;;;22.29;47.58;100388.00;4435794;32;20083;-70
2021/10/27 02:01:22;;;;;;;1.20;0.30;;;;;;;22.48;47.25;100375.38;4433660;32;20152;-70
2021/10/27 02:03:48;;;;;;;2.53;0.60;;;;;;;22.80;46.21;100375.75;4436207;32;20052;-71
2021/10/27 02:06:13;;;;;;;3.70;0.60;;;;;;;22.79;46.27;100377.84;4436635;32;20472;-71
2021/10/27 02:08:40;;;;;;;5.12;0.70;;;;;;;23.02;45.80;100389.94;4434708;32;20061;-71
2021/10/27 02:11:06;;;;;;;5.32;0.93;;;;;;;22.94;45.96;100380.34;4431347;32;20061;-71
2021/10/27 02:13:32;;;;;;;2.53;0.47;;;;;;;23.07;45.65;100378.41;4432901;32;20410;-71
2021/10/27 02:15:59;;;;;;;5.47;0.80;;;;;;;22.49;46.92;100367.56;4435227;32;20099;-71
2021/10/27 02:18:25;;;;;;;7.05;0.57;;;;;;;22.94;46.20;100374.59;4432781;32;20477;-71
2021/10/27 02:20:50;;;;;;;1.70;0.55;;;;;;;22.98;45.95;100375.87;4434382;32;20145;-71
2021/10/27 02:23:17;;;;;;;2.78;0.55;;;;;;;22.70;46.38;100380.25;4435677;32;20148;-71
2021/10/27 02:25:43;;;;;;;3.42;0.55;;;;;;;23.00;45.97;100366.72;4434342;32;20060;-71
2021/10/27 02:28:09;;;;;;;6.00;0.68;;;;;;;23.16;45.59;100369.47;4428977;32;20077;-71
2021/10/27 02:30:35;;;;;;;4.87;0.88;;;;;;;22.84;46.22;100356.16;4421944;32;20053;-71
2021/10/27 02:33:03;;;;;;;4.32;0.70;;;;;;;22.86;45.93;100351.44;4424178;32;20167;-71
2021/10/27 02:35:30;;;;;;;5.50;1.10;;;;;;;22.93;46.25;100358.69;4420626;32;20049;-71
2021/10/27 02:37:56;;;;;;;4.90;0.77;;;;;;;22.68;46.73;100343.50;4421309;32;20033;-71
2021/10/27 02:40:23;;;;;;;8.27;0.88;;;;;;;22.79;46.46;100351.22;4420830;32;20603;-71
2021/10/27 02:42:49;;;;;;;5.45;0.95;;;;;;;22.71;46.71;100351.03;4423649;32;20078;-71
2021/10/27 02:45:14;;;;;;;4.28;0.73;;;;;;;22.86;46.25;100362.16;4423157;32;20092;-71
2021/10/27 02:47:44;;;;;;;5.62;0.73;;;;;;;22.71;46.71;100344.50;4422960;32;20117;-71
2021/10/27 02:50:11;;;;;;;4.15;0.80;;;;;;;22.92;46.19;100349.28;4424034;32;20077;-71
2021/10/27 02:52:37;;;;;;;3.90;0.82;;;;;;;23.05;46.08;100340.88;4424175;32;20042;-71
2021/10/27 02:55:04;;;;;;;5.85;0.88;;;;;;;22.97;46.10;100334.12;4424930;32;20064;-71
2021/10/27 02:57:30;;;;;;;5.72;1.10;;;;;;;22.64;47.13;100333.62;4420118;32;20076;-71
2021/10/27 02:59:57;;;;;;;4.30;0.90;;;;;;;22.91;46.51;100324.00;4421572;32;20450;-71
2021/10/27 03:02:22;;;;;;;3.12;0.98;;;;;;;22.63;47.31;100340.66;4423503;32;20550;-71
2021/10/27 03:04:48;;;;;;;7.15;0.98;;;;;;;22.66;47.17;100326.03;4425158;32;20403;-70
2021/10/27 03:07:14;;;;;;;6.60;1.10;;;;;;;22.91;46.60;100329.75;4424824;32;20140;-71
2021/10/27 03:09:39;;;;;;;3.90;0.88;;;;;;;22.62;47.38;100325.53;4424085;32;20093;-71
2021/10/27 03:12:06;;;;;;;5.40;1.23;;;;;;;22.63;47.28;100332.03;4424708;32;20038;-71
2021/10/27 03:14:32;;;;;;;4.60;1.10;;;;;;;22.93;46.95;100333.66;4420222;32;20530;-71
2021/10/27 03:16:58;;;;;;;4.43;1.17;;;;;;;22.64;47.46;100331.50;4427732;32;20063;-71
2021/10/27 03:19:24;;;;;;;5.87;1.20;;;;;;;22.87;46.96;100326.38;4424513;32;20095;-71
2021/10/27 03:21:49;;;;;;;3.33;0.90;;;;;;;22.65;47.87;100332.28;4420438;32;20152;-71
2021/10/27 03:24:16;;;;;;;7.28;1.60;;;;;;;22.86;47.33;100327.72;4421283;32;20065;-71
2021/10/27 03:26:43;;;;;;;6.95;1.00;;;;;;;22.98;47.09;100321.34;4418722;32;20103;-71
2021/10/27 03:29:09;;;;;;;2.85;1.10;;;;;;;22.90;47.34;100339.69;4420619;32;20485;-71
2021/10/27 03:31:35;;;;;;;3.28;0.50;;;;;;;23.02;47.20;100329.66;4422154;32;20789;-71
2021/10/27 03:34:01;;;;;;;4.50;0.90;;;;;;;22.74;47.88;100343.44;4421789;32;20163;-71
2021/10/27 03:36:27;;;;;;;5.05;1.10;;;;;;;22.64;47.94;100339.34;4427343;32;20048;-71
2021/10/27 03:38:52;;;;;;;4.28;1.10;;;;;;;23.02;47.27;100346.88;4422195;32;21290;-71
2021/10/27 03:41:19;;;;;;;4.82;1.00;;;;;;;22.67;47.77;100347.66;4421719;32;20033;-71
2021/10/27 03:43:44;;;;;;;4.37;0.90;;;;;;;22.49;48.36;100344.63;4421288;32;20069;-71
2021/10/27 03:46:11;;;;;;;5.72;1.15;;;;;;;22.95;47.66;100338.87;4419799;32;20010;-71
2021/10/27 03:48:39;;;;;;;2.92;0.82;;;;;;;22.56;48.39;100324.00;4420455;32;20054;-71
2021/10/27 03:51:05;;;;;;;4.22;1.15;;;;;;;22.77;48.19;100343.16;4422770;32;20092;-71
2021/10/27 03:53:31;;;;;;;3.37;0.73;;;;;;;22.58;48.78;100338.59;4424132;32;20051;-71
2021/10/27 03:55:56;;;;;;;5.03;0.90;;;;;;;22.25;49.51;100341.63;4422392;32;20051;-71
2021/10/27 03:58:22;;;;;;;8.57;1.08;;;;;;;22.48;49.31;100340.19;4420357;32;20106;-70
2021/10/27 04:00:48;;;;;;;8.57;1.30;;;;;;;22.49;50.02;100347.50;4420864;32;20073;-71
2021/10/27 04:03:22;;;;;;;5.30;0.90;;;;;;;22.22;51.25;100345.56;4424684;32;20104;-71
2021/10/27 04:05:49;;;;;;;5.35;0.98;;;;;;;22.62;50.73;100357.09;4427186;32;20042;-71
2021/10/27 04:08:15;;;;;;;5.80;1.30;;;;;;;21.90;52.31;100333.69;4422269;32;20508;-71
2021/10/27 04:10:40;;;;;;;3.65;1.10;;;;;;;22.24;51.50;100340.09;4421548;32;20015;-71
2021/10/27 04:13:06;;;;;;;5.55;0.98;;;;;;;22.28;51.04;100331.97;4422062;32;20037;-71
2021/10/27 04:15:32;;;;;;;3.53;1.15;;;;;;;22.04;51.57;100334.69;4422356;32;20038;-71
2021/10/27 04:17:59;;;;;;;4.22;1.10;;;;;;;22.21;50.88;100321.06;4421608;32;20320;-71
2021/10/27 04:20:25;;;;;;;6.85;1.00;;;;;;;22.52;49.87;100320.66;4419874;32;20081;-71
2021/10/27 04:22:51;;;;;;;6.95;1.42;;;;;;;22.54;49.60;100330.28;4422612;32;20096;-70
2021/10/27 04:25:16;;;;;;;4.97;0.90;;;;;;;22.45;49.57;100333.44;4420257;32;20098;-71
2021/10/27 04:27:42;;;;;;;5.72;1.00;;;;;;;23.07;47.99;100335.34;4417448;32;20100;-71
2021/10/27 04:30:08;;;;;;;4.03;0.82;;;;;;;22.72;48.61;100352.59;4420175;32;20056;-70
2021/10/27 04:32:35;;;;;;;1.37;0.57;;;;;;;23.09;47.72;100352.03;4422434;32;20444;-71
2021/10/27 04:35:01;;;;;;;4.12;0.80;;;;;;;22.67;48.48;100356.25;4423525;32;20446;-71
2021/10/27 04:37:27;;;;;;;2.62;0.73;;;;;;;23.00;47.62;100361.78;4422791;32;20038;-71
2021/10/27 04:39:53;;;;;;;4.20;0.80;;;;;;;22.59;48.38;100358.16;4423331;32;20070;-71
2021/10/27 04:42:19;;;;;;;3.67;0.68;;;;;;;22.50;48.39;100352.72;4419153;32;20087;-71
2021/10/27 04:44:44;;;;;;;3.15;0.62;;;;;;;22.55;48.32;100339.66;4423366;32;20105;-71
2021/10/27 04:47:10;;;;;;;2.83;0.57;;;;;;;22.56;47.99;100344.09;4420494;32;20021;-71
2021/10/27 04:49:36;;;;;;;5.22;1.05;;;;;;;23.11;46.81;100337.94;4420401;32;20034;-71
2021/10/27 04:52:02;;;;;;;4.93;0.90;;;;;;;22.69;47.42;100347.12;4417780;32;20106;-71
2021/10/27 04:54:28;;;;;;;4.05;0.50;;;;;;;23.08;46.50;100341.87;4418255;32;20037;-71
2021/10/27 04:56:54;;;;;;;8.43;0.90;;;;;;;22.84;46.90;100344.69;4419011;32;20394;-71
2021/10/27 04:59:19;;;;;;;3.75;0.50;;;;;;;22.90;46.77;100356.88;4419809;32;20115;-71
2021/10/27 05:01:46;;;;;;;3.53;0.60;;;;;;;23.07;46.24;100346.84;4421781;32;20136;-71
2021/10/27 05:04:13;;;;;;;3.35;0.80;;;;;;;23.15;46.18;100350.69;4421017;32;20052;-71
2021/10/27 05:06:39;;;;;;;5.00;0.70;;;;;;;23.44;45.43;100380.75;4421806;32;20017;-71
2021/10/27 05:09:05;;;;;;;5.95;0.90;;;;;;;22.70;46.75;100368.78;4419744;32;20054;-71
2021/10/27 05:11:30;;;;;;;6.85;0.80;;;;;;;23.37;45.33;100358.34;4420367;32;20371;-71
2021/10/27 05:13:56;;;;;;;3.50;0.70;;;;;;;23.13;45.66;100347.56;4420257;32;20066;-71
2021/10/27 05:16:22;;;;;;;3.90;0.80;;;;;;;23.59;44.69;100355.25;4421598;32;20081;-71
2021/10/27 05:18:47;;;;;;;4.65;0.60;;;;;;;23.72;44.31;100364.00;4420066;32;20153;-71
2021/10/27 05:21:13;;;;;;;5.55;0.60;;;;;;;23.88;43.92;100353.62;4422962;32;20025;-71
2021/10/27 05:23:39;;;;;;;2.72;0.40;;;;;;;23.54;44.43;100365.47;4420523;32;20095;-71
2021/10/27 05:26:05;;;;;;;11.70;0.70;;;;;;;23.50;44.61;100361.34;4420575;32;20103;-71
2021/10/27 05:28:32;;;;;;;4.72;0.70;;;;;;;23.15;45.33;100365.03;4415048;32;20046;-71
2021/10/27 05:30:58;;;;;;;2.17;0.60;;;;;;;23.44;44.59;100360.66;4417632;32;20033;-71
2021/10/27 05:33:23;;;;;;;3.72;0.70;;;;;;;23.39;44.81;100361.47;4419301;32;20079;-71
2021/10/27 05:35:49;;;;;;;5.90;0.73;;;;;;;23.64;44.31;100351.53;4420588;32;20029;-71
2021/10/27 05:38:15;;;;;;;5.12;1.30;;;;;;;23.91;43.56;100364.06;4420049;32;20129;-71
2021/10/27 05:40:41;;;;;;;5.40;0.90;;;;;;;23.64;44.00;100359.37;4418699;32;20052;-71
2021/10/27 05:43:09;;;;;;;4.00;0.80;;;;;;;23.39;44.73;100336.41;4418122;32;20034;-71
2021/10/27 05:45:36;;;;;;;2.65;0.52;;;;;;;23.15;45.56;100342.06;4417816;32;20132;-71
2021/10/27 05:48:02;;;;;;;5.75;0.65;;;;;;;23.39;45.13;100341.34;4417738;32;20613;-71
2021/10/27 05:55:50;;;;;;;1.65;0.68;;;;;;;23.64;45.14;100328.56;4435674;32;20026;-71
2021/10/27 05:58:16;;;;;;;6.97;1.40;;;;;;;23.31;45.42;100323.16;4435808;32;20141;-71
2021/10/27 06:00:44;;;;;;;5.60;0.70;;;;;;;23.42;45.46;100323.84;4435844;32;20424;-71
2021/10/27 06:03:09;;;;;;;5.00;0.75;;;;;;;23.11;46.29;100340.81;4432148;32;20073;-71
2021/10/27 06:05:36;;;;;;;4.22;0.90;;;;;;;23.27;45.83;100328.41;4437446;32;20616;-71
2021/10/27 06:08:02;;;;;;;3.33;0.80;;;;;;;23.08;46.57;100321.78;4431887;32;20351;-71
2021/10/27 06:10:28;;;;;;;4.40;0.70;;;;;;;23.22;46.50;100327.12;4431494;32;20107;-71
2021/10/27 06:13:01;;;;;;;3.85;0.80;;;;;;;23.09;46.63;100314.72;4433105;32;20056;-71
2021/10/27 06:15:27;;;;;;;5.55;0.70;;;;;;;22.93;47.36;100304.97;4434354;32;20053;-71
2021/10/27 06:17:53;;;;;;;8.15;1.60;;;;;;;22.84;47.60;100313.91;4435152;32;20025;-71
2021/10/27 06:20:19;;;;;;;5.60;0.98;;;;;;;22.99;47.45;100313.50;4429630;32;20041;-71
2021/10/27 06:22:45;;;;;;;10.77;1.15;;;;;;;22.79;48.05;100319.66;4436817;32;20056;-71
2021/10/27 06:25:12;;;;;;;2.50;0.70;;;;;;;22.93;48.14;100310.69;4432639;32;20056;-71
2021/10/27 06:27:41;;;;;;;2.37;0.75;;;;;;;22.74;48.57;100332.72;4435356;32;20183;-71
2021/10/27 06:35:27;;;;;;;4.72;1.00;;;;;;;23.24;47.79;100329.50;3987570;32;15022006;-71
2021/10/27 06:38:11;;;;;;;6.10;1.12;;;;;;;23.15;48.15;100321.19;4438258;32;20393;-70
2021/10/27 06:46:32;;;;;;;4.25;0.80;;;;;;;22.27;51.34;100348.38;4437967;32;20041;-70
2021/10/27 06:48:55;;;;;;;7.82;1.50;;;;;;;22.40;51.36;100339.97;4438339;32;20505;-71
2021/10/27 06:51:21;;;;;;;2.75;1.40;;;;;;;22.63;51.33;100326.31;4437017;32;20077;-71
2021/10/27 06:53:48;;;;;;;2.97;1.08;;;;;;;22.19;52.75;100326.53;4436923;32;20049;-71
2021/10/27 06:56:16;;;;;;;3.90;0.80;;;;;;;21.93;53.25;100324.06;4436354;32;20077;-70
2021/10/27 06:59:23;;;;;;;2.80;0.93;;;;;;;22.42;52.30;100322.22;4435804;32;20082;-70
2021/10/27 07:17:53;;;;;;;5.68;1.12;;;;;;;22.32;52.56;100333.25;3985603;32;15022934;-70
2021/10/27 07:20:21;;;;;;;4.12;1.30;;;;;;;22.54;51.94;100341.75;4430536;32;20068;-70
2021/10/27 07:22:47;;;;;;;5.12;1.35;;;;;;;22.45;52.39;100342.03;4432208;32;20069;-70
2021/10/27 07:25:14;;;;;;;4.62;1.00;;;;;;;22.53;52.20;100343.06;4437181;32;20018;-71
2021/10/27 07:27:41;;;;;;;5.65;1.65;;;;;;;22.55;51.93;100339.66;4437516;32;20375;-71
2021/10/27 07:30:07;;;;;;;6.93;1.58;;;;;;;22.64;51.69;100340.12;4435561;32;20365;-70
2021/10/27 07:32:35;;;;;;;12.82;2.60;;;;;;;22.35;52.40;100340.00;4428640;32;20382;-70
2021/10/27 07:40:43;;;;;;;35.95;5.18;;;;;;;22.78;52.34;100335.31;4429817;32;20065;-71
2021/10/27 07:43:15;;;;;;;4.82;1.60;;;;;;;22.18;53.31;100345.06;4434127;32;20102;-71
2021/10/27 07:45:42;;;;;;;3.58;1.48;;;;;;;22.39;52.82;100344.16;4435090;32;20653;-69
2021/10/27 07:48:08;;;;;;;4.20;1.20;;;;;;;21.95;53.31;100318.59;4434437;32;20073;-70
2021/10/27 07:50:37;;;;;;;5.20;1.40;;;;;;;21.98;52.86;100326.13;4435059;32;20042;-70
2021/10/27 07:53:05;;;;;;;2.65;1.23;;;;;;;21.73;53.34;100337.91;4431692;32;20526;-70
2021/10/27 07:55:32;;;;;;;3.58;1.20;;;;;;;22.31;51.97;100319.44;4436084;32;20022;-71
2021/10/27 07:57:58;;;;;;;3.33;1.02;;;;;;;22.19;52.11;100321.59;4431402;32;20098;-71
2021/10/27 08:00:24;;;;;;;3.85;0.90;;;;;;;22.11;51.99;100331.25;4435856;32;20077;-71
2021/10/27 08:02:51;;;;;;;4.55;1.08;;;;;;;22.16;51.54;100333.34;4437385;32;20502;-71
2021/10/27 08:05:17;;;;;;;4.20;1.40;;;;;;;22.39;51.10;100349.09;4434938;32;20026;-71
2021/10/27 08:07:46;;;;;;;5.22;1.37;;;;;;;22.80;50.26;100349.94;4434472;32;20111;-71
2021/10/27 08:10:14;;;;;;;3.40;1.05;;;;;;;22.94;49.72;100335.19;4435742;32;20537;-71
2021/10/27 08:12:42;;;;;;;6.97;1.30;;;;;;;22.73;50.25;100353.38;4433012;32;20077;-71
2021/10/27 08:15:08;;;;;;;3.95;1.45;;;;;;;23.32;48.89;100356.31;4435693;32;20083;-71
2021/10/27 08:17:36;;;;;;;5.65;1.27;;;;;;;23.29;48.74;100360.25;4437331;32;20054;-71
2021/10/27 08:20:04;;;;;;;4.53;1.02;;;;;;;23.70;47.84;100349.41;4431897;32;20076;-71
2021/10/27 08:22:31;;;;;;;3.83;1.30;;;;;;;23.60;48.35;100351.06;4435371;32;20101;-71
2021/10/27 08:24:58;;;;;;;3.72;1.05;;;;;;;23.44;48.66;100366.37;4433982;32;20411;-71
2021/10/27 08:27:26;;;;;;;4.55;1.00;;;;;;;23.31;48.98;100360.47;4433513;32;20379;-71
2021/10/27 08:29:52;;;;;;;5.68;1.12;;;;;;;23.07;49.31;100351.81;4432225;32;20076;-71
2021/10/27 08:35:04;;;;;;;9.48;1.75;;;;;;;23.27;48.74;100345.66;4434885;32;20108;-71
2021/10/27 08:37:30;;;;;;;5.12;1.25;;;;;;;23.31;48.59;100357.59;4438841;32;20491;-71
2021/10/27 08:39:56;;;;;;;3.92;1.05;;;;;;;23.42;48.19;100351.78;4435672;32;20040;-71
2021/10/27 08:42:21;;;;;;;3.72;1.48;;;;;;;23.42;48.27;100360.41;4434192;32;20087;-71
2021/10/27 08:44:47;;;;;;;3.22;1.20;;;;;;;23.66;47.72;100359.63;4437185;32;20139;-71
2021/10/27 08:47:13;;;;;;;2.05;0.90;;;;;;;23.87;47.11;100363.59;4416479;32;20091;-71
2021/10/27 08:49:42;;;;;;;2.10;1.00;;;;;;;24.06;46.37;100359.47;4411243;32;20065;-71
2021/10/27 08:52:12;;;;;;;3.92;1.15;;;;;;;23.81;46.85;100351.38;4421728;32;21135;-71
2021/10/27 08:54:38;;;;;;;4.18;1.25;;;;;;;23.80;46.70;100364.19;4419074;32;20093;-71
2021/10/27 08:57:07;;;;;;;3.47;1.08;;;;;;;23.80;46.60;100382.19;4422406;32;20406;-71
2021/10/27 09:00:13;;;;;;;6.22;1.17;;;;;;;24.17;45.96;100367.94;4426714;32;20867;-71
2021/10/27 09:02:38;;;;;;;2.95;0.82;;;;;;;23.87;46.68;100360.72;4421007;32;20387;-70
2021/10/27 09:05:34;;;;;;;4.30;1.20;;;;;;;23.66;47.14;100368.25;4423015;32;20409;-71
2021/10/27 09:37:34;;;;;;;3.80;1.08;;;;;;;24.87;44.51;100376.16;3984104;32;15022355;-71
2021/10/27 09:40:49;;;;;;;2.80;0.73;;;;;;;24.87;44.51;100376.16;4429998;32;20630;-71
2021/10/27 09:46:35;;;;;;;8.85;1.30;;;;;;;24.44;45.36;100381.19;3979198;32;15023528;-72
2021/10/27 10:04:41;;;;;;;3.92;0.77;;;;;;;24.59;44.05;100372.87;4434176;32;20145;-71
2021/10/27 10:07:28;;;;;;;5.82;1.25;;;;;;;24.78;44.13;100372.87;4435879;32;20094;-71
2021/10/27 10:10:15;;;;;;;4.28;0.90;;;;;;;24.68;44.18;100366.75;4435188;32;20102;-70
2021/10/27 10:13:00;;;;;;;4.20;0.60;;;;;;;25.36;42.85;100370.91;4435304;32;20402;-70
2021/10/27 10:15:45;;;;;;;3.15;1.08;;;;;;;25.09;42.83;100367.16;4434673;32;20064;-70
2021/10/27 10:18:30;;;;;;;5.07;0.85;;;;;;;24.98;43.20;100372.31;4435511;32;20053;-70
2021/10/27 10:21:22;;;;;;;5.57;0.90;;;;;;;24.77;43.67;100377.09;4436322;32;20100;-71
2021/10/27 10:24:31;;;;;;;4.80;0.60;;;;;;;24.86;43.60;100368.06;4434929;32;20094;-72
2021/10/27 10:27:35;;;;;;;4.37;0.85;;;;;;;25.32;42.67;100364.72;4431822;32;20107;-70
2021/10/27 10:30:42;;;;;;;6.35;1.15;;;;;;;25.00;43.19;100355.25;4436051;32;20131;-70
2021/10/27 10:36:31;;;;;;;5.18;0.95;;;;;;;25.74;41.95;100334.06;3971489;32;15249049;-72
2021/10/27 10:39:51;;;;;;;4.55;0.98;;;;;;;25.74;41.95;100334.06;4428082;32;20075;-70
2021/10/27 11:26:58;;;;;;;2.40;0.90;;;;;;;26.05;40.71;100333.97;3990396;32;15021873;-70
2021/10/27 11:41:49;;;;;;;2.47;0.93;;;;;;;25.91;40.97;100343.94;3991100;32;15081420;-70
2021/10/27 11:44:44;;;;;;;4.40;0.93;;;;;;;25.74;41.51;100326.19;4443714;32;20499;-70
2021/10/27 11:47:10;;;;;;;3.60;1.20;;;;;;;25.69;41.68;100335.72;4445083;32;20128;-70
2021/10/27 11:49:39;;;;;;;2.45;0.80;;;;;;;25.66;41.57;100330.28;4437312;32;20386;-70
2021/10/27 11:52:06;;;;;;;14.48;1.33;;;;;;;25.65;41.78;100320.09;4437613;32;20033;-70
2021/10/27 11:54:32;;;;;;;7.68;3.47;;;;;;;24.96;43.08;100326.81;4449215;32;20081;-71
2021/10/27 11:57:01;;;;;;;3.47;0.80;;;;;;;25.03;43.02;100329.03;4446460;32;20111;-70
2021/10/27 11:59:47;;;;;;;4.05;1.00;;;;;;;25.00;43.08;100344.53;4446353;32;20097;-69
2021/10/27 12:02:14;;;;;;;6.93;1.40;;;;;;;25.04;42.79;100324.81;4447964;32;20065;-69
2021/10/27 12:04:41;;;;;;;2.12;0.90;;;;;;;24.69;43.50;100353.91;4446058;32;20076;-69
2021/10/27 12:10:23;;;;;;;3.85;1.10;;;;;;;25.23;42.81;100362.22;3971099;32;15026021;-70
2021/10/27 12:18:11;;;;;;;4.47;1.12;;;;;;;24.78;43.96;100355.59;3983147;32;15022260;-69
2021/10/27 12:20:41;;;;;;;5.75;1.30;;;;;;;24.78;43.96;100355.59;4433954;32;20068;-69
2021/10/27 12:23:16;;;;;;;3.10;1.20;;;;;;;24.72;43.97;100363.53;4430977;32;20081;-69
2021/10/27 12:25:43;;;;;;;7.47;1.75;;;;;;;24.89;43.64;100362.00;4433709;32;20073;-69
2021/10/27 12:28:31;;;;;;;3.83;1.23;;;;;;;24.84;43.75;100359.19;4433326;32;20067;-69
2021/10/27 12:31:11;;;;;;;3.15;1.10;;;;;;;24.63;43.83;100379.09;4431217;32;20069;-69
2021/10/27 12:33:42;;;;;;;4.78;1.45;;;;;;;24.76;43.62;100341.75;4431098;32;20418;-69
2021/10/27 12:36:24;;;;;;;4.62;1.30;;;;;;;25.04;43.02;100344.97;4434107;32;20058;-69
2021/10/27 12:39:16;;;;;;;4.93;1.33;;;;;;;25.29;42.54;100334.88;4433365;32;20034;-69
2021/10/27 12:41:45;;;;;;;5.25;1.02;;;;;;;25.92;41.21;100356.25;4435799;32;20022;-69
2021/10/27 12:52:44;;;;;;;8.60;1.52;;;;;;;25.70;41.84;100328.63;3982397;32;15026538;-70
2021/10/27 12:55:35;;;;;;;7.60;1.42;;;;;;;25.70;41.84;100328.63;4436485;32;20421;-70
2021/10/27 13:01:11;;;;;;;3.42;1.05;;;;;;;25.20;42.85;100326.66;3998300;31;15023540;-70
2021/10/27 13:09:08;;;;;;;3.22;1.10;;;;;;;26.84;38.98;100325.91;3984586;32;15024249;-70
2021/10/27 13:30:18;;;;;;;5.37;1.65;;;;;;;25.80;39.80;100295.13;4431211;32;20072;-70
2021/10/27 13:32:53;;;;;;;4.82;1.35;;;;;;;26.07;39.18;100301.69;4434238;32;20042;-70
2021/10/27 13:35:20;;;;;;;4.43;1.27;;;;;;;26.35;38.69;100304.75;4435072;32;20498;-70
2021/10/27 13:37:46;;;;;;;9.25;1.50;;;;;;;26.36;38.90;100300.53;4433325;32;20022;-70
2021/10/27 13:40:12;;;;;;;4.35;1.40;;;;;;;26.24;39.06;100310.75;4433819;32;20386;-70
2021/10/27 14:18:12;;;;;;;4.65;1.62;;;;;;;26.04;38.23;100276.84;3983628;32;15028602;-70
2021/10/27 14:40:02;;;;;;;11.40;1.40;;;;;;;26.04;37.89;100265.31;4432054;32;20402;-69
2021/10/27 14:59:14;;;;;;;7.82;1.95;;;;;;;25.28;39.24;100238.25;4414083;32;20086;-71
2021/10/27 15:19:35;;;;;;;;;;;;;;;25.66;38.88;100215.00;4410969;32;20056;-70
2021/10/27 15:21:12;;;;;;;8.77;2.00;;;;;;;25.58;39.09;100220.66;4409142;32;20359;-69
2021/10/27 15:23:50;;;;;;;6.87;1.95;;;;;;;25.09;39.89;100214.53;4410171;32;20289;-69
2021/10/27 15:31:55;;;;;;;8.82;1.90;;;;;;;25.80;38.98;100213.66;3983311;32;15023380;-70
2021/10/27 15:45:37;;;;;;;4.20;1.52;;;;;;;25.55;39.25;100210.25;3982127;32;15021446;-70
2021/10/27 15:51:03;;;;;;;5.87;1.77;;;;;;;24.99;39.94;100213.41;4434551;32;20123;-70
2021/10/27 15:53:29;;;;;;;;;;;;;;;25.19;39.82;100194.72;4434287;32;20399;-69
2021/10/27 15:55:55;;;;;;;6.25;1.77;;;;;;;25.21;39.75;100207.25;4432005;32;19988;-70
2021/10/27 15:58:22;;;;;;;5.43;1.70;;;;;;;24.97;40.42;100216.06;4433746;32;20388;-69
2021/10/27 16:01:06;;;;;;;9.73;1.52;;;;;;;25.14;40.11;100202.16;4434750;32;20230;-69
2021/10/27 16:03:50;;;;;;;6.62;1.83;;;;;;;25.23;39.91;100198.03;4436069;32;20095;-69
2021/10/27 16:06:40;;;;;;;5.00;2.22;;;;;;;25.06;40.28;100207.00;4431973;32;20105;-69
2021/10/27 16:09:29;;;;;;;6.25;1.62;;;;;;;25.09;40.20;100208.00;4433220;32;20358;-69
2021/10/27 16:12:14;;;;;;;7.65;1.70;;;;;;;25.03;40.31;100210.19;4436170;32;20052;-69
2021/10/27 16:14:40;;;;;;;5.47;1.58;;;;;;;25.35;39.76;100205.94;4435615;32;20046;-69
2021/10/27 16:17:07;;;;;;;5.03;1.33;;;;;;;25.34;39.72;100213.03;4431302;32;20108;-70
2021/10/27 16:19:33;;;;;;;3.70;1.37;;;;;;;25.27;39.94;100190.63;4430712;32;20458;-69
2021/10/27 16:21:59;;;;;;;7.00;1.67;;;;;;;24.70;41.05;100208.69;4431170;32;20075;-69
2021/10/27 16:24:25;;;;;;;5.60;1.25;;;;;;;24.84;40.95;100198.78;4432894;32;20549;-69
2021/10/27 16:26:53;;;;;;;4.80;1.27;;;;;;;24.96;40.71;100208.75;4435231;32;20030;-69
2021/10/27 16:29:19;;;;;;;5.85;1.92;;;;;;;24.89;41.05;100205.75;4431464;32;20091;-69
2021/10/27 16:31:46;;;;;;;5.87;1.50;;;;;;;24.47;41.91;100206.72;4430049;32;20042;-69
2021/10/27 16:34:13;;;;;;;7.85;1.70;;;;;;;24.65;41.54;100212.47;4434793;32;20468;-69
2021/10/27 16:36:40;;;;;;;5.07;1.67;;;;;;;24.51;41.80;100202.19;4432877;32;20033;-69
2021/10/27 16:39:06;;;;;;;4.22;1.70;;;;;;;24.64;41.68;100201.47;4434131;32;20441;-69
2021/10/27 16:41:32;;;;;;;7.97;1.77;;;;;;;24.46;41.92;100205.16;4434766;32;20156;-69
2021/10/27 16:44:16;;;;;;;6.15;1.33;;;;;;;24.37;42.14;100214.19;4431629;32;20099;-70
2021/10/27 16:46:42;;;;;;;5.05;1.27;;;;;;;24.38;42.01;100201.38;4437050;32;20670;-70
2021/10/27 16:49:08;;;;;;;4.57;1.10;;;;;;;24.60;41.67;100204.66;4429934;32;20034;-70